Time;durP1;ratioP1;P1;durP2;ratioP2;P2;SDS_P1;SDS_P2;PMS_P1;PMS_P2;Temp;Humidity;BMP_temperature;BMP_pressure;BME280_temperature;BME280_humidity;BME280_pressure;Samples;Min_cycle;Max_cycle;Signal;HPM_P1;HPM_P2
2022/10/24 00:00:31;;;;;;;3.58;1.27;;;16.80;99.90;;;;;;4989842;28;20050;-67
2022/10/24 00:02:57;;;;;;;9.88;2.05;;;16.80;99.90;;;;;;4990433;28;20030;-67
2022/10/24 00:05:23;;;;;;;5.03;2.08;;;16.80;99.90;;;;;;4991054;28;20030;-67
2022/10/24 00:07:49;;;;;;;6.60;1.52;;;16.70;99.90;;;;;;4994020;28;20084;-68
2022/10/24 00:10:17;;;;;;;6.47;1.65;;;16.70;99.90;;;;;;4994678;28;20080;-67
2022/10/24 00:12:43;;;;;;;5.22;1.90;;;16.60;99.90;;;;;;4992647;28;20596;-67
2022/10/24 00:15:09;;;;;;;3.50;1.05;;;16.50;99.90;;;;;;4994476;28;20030;-68
2022/10/24 00:17:35;;;;;;;5.68;1.83;;;16.50;99.90;;;;;;4993410;28;20394;-67
2022/10/24 00:20:01;;;;;;;5.97;2.17;;;16.50;99.90;;;;;;4994708;28;20034;-68
2022/10/24 00:22:27;;;;;;;9.75;1.63;;;16.50;99.90;;;;;;4992742;28;20464;-67
2022/10/24 00:24:52;;;;;;;15.38;2.03;;;16.50;99.90;;;;;;4994728;28;20030;-67
2022/10/24 00:27:18;;;;;;;4.55;1.02;;;16.50;99.90;;;;;;4994507;28;20490;-67
2022/10/24 00:29:44;;;;;;;8.32;1.30;;;16.50;99.90;;;;;;4994165;28;20038;-67
2022/10/24 00:32:10;;;;;;;4.85;1.40;;;16.40;99.90;;;;;;4994110;28;20030;-67
2022/10/24 00:34:37;;;;;;;11.15;2.03;;;16.40;99.90;;;;;;4993785;28;20038;-68
2022/10/24 00:37:03;;;;;;;5.93;2.17;;;16.40;99.90;;;;;;4993248;28;20112;-67
2022/10/24 00:39:29;;;;;;;5.03;2.63;;;16.40;99.90;;;;;;4992862;28;20026;-67
2022/10/24 00:41:57;;;;;;;4.57;0.85;;;16.40;99.90;;;;;;4993940;28;20063;-67
2022/10/24 00:44:31;;;;;;;4.30;1.90;;;16.40;99.90;;;;;;4992328;28;20056;-67
2022/10/24 00:47:22;;;;;;;7.03;1.00;;;16.40;99.90;;;;;;4992966;28;20121;-67
2022/10/24 00:50:10;;;;;;;3.58;1.45;;;16.50;99.90;;;;;;4992960;28;20105;-67
2022/10/24 00:52:42;;;;;;;21.63;2.28;;;16.50;99.90;;;;;;4992113;28;20034;-67
2022/10/24 00:55:09;;;;;;;2.50;1.17;;;16.50;99.90;;;;;;4993655;28;20034;-67
2022/10/24 00:57:50;;;;;;;3.75;1.15;;;16.50;99.90;;;;;;4992625;28;20034;-67
2022/10/24 01:00:24;;;;;;;5.50;2.55;;;16.60;99.90;;;;;;4992650;28;20116;-67
2022/10/24 01:02:50;;;;;;;7.68;1.10;;;16.60;99.90;;;;;;4992953;28;20030;-67
2022/10/24 01:05:17;;;;;;;7.13;1.50;;;16.60;99.90;;;;;;4997327;28;20038;-67
2022/10/24 01:08:02;;;;;;;4.85;1.38;;;16.60;99.90;;;;;;4990866;28;20402;-67
2022/10/24 01:10:53;;;;;;;6.80;2.20;;;16.60;99.90;;;;;;5001243;28;20483;-67
2022/10/24 01:13:57;;;;;;;1.75;0.98;;;16.60;99.90;;;;;;5012348;28;20034;-67
2022/10/24 01:16:45;;;;;;;19.38;2.80;;;16.60;99.90;;;;;;4996621;28;20046;-67
2022/10/24 01:19:41;;;;;;;3.60;1.60;;;16.60;99.90;;;;;;4993176;28;20034;-68
2022/10/24 01:22:17;;;;;;;18.90;1.98;;;16.60;99.90;;;;;;4993038;28;20037;-68
2022/10/24 01:25:01;;;;;;;1.60;0.98;;;16.60;99.90;;;;;;5005690;28;20087;-68
2022/10/24 01:27:54;;;;;;;10.63;1.15;;;16.60;99.90;;;;;;5011492;28;20037;-68
2022/10/24 01:30:20;;;;;;;7.68;1.50;;;16.60;99.90;;;;;;5011383;28;20046;-68
2022/10/24 01:32:49;;;;;;;11.40;1.30;;;16.60;99.90;;;;;;5011925;28;20111;-68
2022/10/24 01:35:34;;;;;;;14.20;1.23;;;16.60;99.90;;;;;;5011445;28;20044;-68
2022/10/24 01:38:44;;;;;;;2.85;1.35;;;16.60;99.90;;;;;;5011018;28;20041;-68
2022/10/24 01:41:21;;;;;;;3.30;1.45;;;16.60;99.90;;;;;;5003863;28;20113;-68
2022/10/24 01:44:21;;;;;;;3.42;1.08;;;16.60;99.90;;;;;;4990892;28;20038;-67
2022/10/24 01:46:57;;;;;;;3.90;1.33;;;16.70;99.90;;;;;;4992732;28;20034;-68
2022/10/24 01:49:30;;;;;;;6.13;1.00;;;16.70;99.90;;;;;;4991661;28;20034;-68
2022/10/24 01:52:02;;;;;;;2.28;1.17;;;16.70;99.90;;;;;;4991414;28;20030;-67
2022/10/24 01:54:29;;;;;;;13.07;1.50;;;16.60;99.90;;;;;;4990655;28;20371;-67
2022/10/24 01:56:55;;;;;;;2.78;1.05;;;16.60;99.90;;;;;;4991265;28;20027;-68
2022/10/24 01:59:29;;;;;;;7.47;1.20;;;16.60;99.90;;;;;;4992490;28;20034;-67
2022/10/24 02:02:23;;;;;;;5.90;1.20;;;16.60;99.90;;;;;;4992272;28;20034;-67
2022/10/24 02:05:17;;;;;;;6.80;1.27;;;16.60;99.90;;;;;;4991422;28;20055;-67
2022/10/24 02:07:47;;;;;;;4.22;1.35;;;16.50;99.90;;;;;;4988535;28;20402;-67
2022/10/24 02:10:41;;;;;;;7.45;0.88;;;16.60;99.90;;;;;;4992332;28;20038;-67
2022/10/24 02:13:17;;;;;;;3.70;2.22;;;16.50;99.90;;;;;;4999697;28;20049;-67
2022/10/24 02:15:51;;;;;;;1.63;0.93;;;16.60;99.90;;;;;;4999842;28;20041;-67
2022/10/24 02:18:18;;;;;;;4.45;1.48;;;16.60;99.90;;;;;;4992280;28;20030;-67
2022/10/24 02:21:09;;;;;;;4.95;1.20;;;16.70;99.90;;;;;;4991061;28;20034;-67
2022/10/24 02:23:50;;;;;;;5.13;0.93;;;16.70;99.90;;;;;;4991271;28;20034;-67
2022/10/24 02:27:00;;;;;;;5.85;1.67;;;16.70;99.90;;;;;;4990967;28;20064;-67
2022/10/24 02:29:52;;;;;;;5.20;1.17;;;16.70;99.90;;;;;;4991112;28;20034;-67
2022/10/24 02:32:30;;;;;;;8.02;1.40;;;16.60;99.90;;;;;;4990214;28;20474;-67
2022/10/24 02:34:59;;;;;;;4.47;1.35;;;16.70;99.90;;;;;;4990896;28;20031;-67
2022/10/24 02:37:28;;;;;;;2.28;1.42;;;16.70;99.90;;;;;;4990715;28;20026;-68
2022/10/24 02:39:56;;;;;;;5.90;1.15;;;16.70;99.90;;;;;;4990517;28;20038;-67
2022/10/24 02:42:24;;;;;;;3.70;1.00;;;16.70;99.90;;;;;;4990037;28;20034;-67
2022/10/24 02:44:50;;;;;;;2.72;1.13;;;16.70;99.90;;;;;;4990436;28;20035;-67
2022/10/24 02:47:19;;;;;;;9.18;1.05;;;16.80;99.90;;;;;;4990551;28;20041;-67
2022/10/24 02:49:46;;;;;;;5.68;0.70;;;16.80;99.90;;;;;;4990248;28;20026;-67
2022/10/24 02:52:12;;;;;;;4.32;0.93;;;16.80;99.90;;;;;;4991536;28;20034;-67
2022/10/24 02:54:38;;;;;;;4.15;1.70;;;16.90;99.90;;;;;;4991096;28;20113;-67
2022/10/24 02:57:04;;;;;;;5.47;1.45;;;17.00;99.90;;;;;;4991596;28;20102;-67
2022/10/24 02:59:29;;;;;;;4.07;0.70;;;17.00;99.90;;;;;;4991556;28;20034;-67
2022/10/24 03:01:55;;;;;;;5.63;1.50;;;16.90;99.90;;;;;;4991715;28;20030;-67
2022/10/24 03:04:21;;;;;;;1.00;0.70;;;16.90;99.90;;;;;;4989572;28;20030;-67
2022/10/24 03:06:47;;;;;;;3.58;1.13;;;17.00;99.90;;;;;;4991570;28;20112;-67
2022/10/24 03:09:12;;;;;;;3.30;1.23;;;17.00;99.90;;;;;;4989954;28;20042;-67
2022/10/24 03:11:39;;;;;;;1.45;0.82;;;16.90;99.90;;;;;;4991570;28;20038;-67
2022/10/24 03:14:05;;;;;;;3.38;1.30;;;16.90;99.90;;;;;;4990574;28;20037;-67
2022/10/24 03:16:31;;;;;;;4.53;1.90;;;16.90;99.90;;;;;;5009983;28;20022;-68
2022/10/24 03:18:56;;;;;;;6.18;1.10;;;17.00;99.90;;;;;;5010883;28;20033;-68
2022/10/24 03:21:23;;;;;;;4.93;1.95;;;16.90;99.90;;;;;;5011110;28;20048;-67
2022/10/24 03:23:49;;;;;;;6.05;1.13;;;17.00;99.90;;;;;;5010204;28;20030;-68
2022/10/24 03:26:15;;;;;;;6.05;1.50;;;17.10;99.90;;;;;;5010795;28;20390;-68
2022/10/24 03:28:40;;;;;;;2.30;1.08;;;17.10;99.90;;;;;;5010827;28;20065;-67
2022/10/24 03:31:06;;;;;;;6.47;1.80;;;17.20;99.90;;;;;;5011194;28;20038;-68
2022/10/24 03:33:32;;;;;;;6.43;0.80;;;17.20;99.90;;;;;;5008936;28;20025;-68
2022/10/24 03:35:58;;;;;;;4.05;1.63;;;17.20;99.90;;;;;;5010746;28;20478;-67
2022/10/24 03:38:24;;;;;;;6.30;1.58;;;17.20;99.90;;;;;;5009402;28;20034;-68
2022/10/24 03:40:50;;;;;;;8.60;1.60;;;17.20;99.90;;;;;;5011228;28;20030;-68
2022/10/24 03:43:17;;;;;;;15.35;1.55;;;17.20;99.90;;;;;;5013994;28;20052;-68
2022/10/24 03:45:43;;;;;;;5.03;1.60;;;17.30;99.90;;;;;;5013431;28;20057;-68
2022/10/24 03:48:09;;;;;;;6.80;1.58;;;17.30;99.90;;;;;;5013301;28;20080;-68
2022/10/24 03:50:35;;;;;;;19.80;2.80;;;17.30;99.90;;;;;;5013242;28;20084;-67
2022/10/24 03:53:01;;;;;;;9.65;2.22;;;17.40;99.90;;;;;;4956875;28;20033;-68
2022/10/24 03:55:28;;;;;;;4.32;1.65;;;17.30;99.90;;;;;;5001055;28;20137;-68
2022/10/24 03:57:54;;;;;;;6.75;1.92;;;17.30;99.90;;;;;;5005221;28;20027;-67
2022/10/24 04:00:20;;;;;;;6.18;1.70;;;17.20;99.90;;;;;;5025270;28;20022;-68
2022/10/24 04:02:46;;;;;;;4.32;1.13;;;17.10;99.90;;;;;;5001620;28;20033;-68
2022/10/24 04:05:13;;;;;;;10.85;1.58;;;17.10;99.90;;;;;;5006675;28;20038;-69
2022/10/24 04:07:39;;;;;;;16.73;2.65;;;17.10;99.90;;;;;;5014144;28;20041;-69
2022/10/24 04:10:06;;;;;;;4.85;1.15;;;17.10;99.90;;;;;;5012637;28;20034;-69
2022/10/24 04:12:32;;;;;;;4.00;0.73;;;17.10;99.90;;;;;;5012934;28;20919;-69
2022/10/24 04:14:58;;;;;;;4.63;1.60;;;17.10;99.90;;;;;;5026448;28;20061;-69
2022/10/24 04:17:23;;;;;;;6.30;1.65;;;17.10;99.90;;;;;;4995943;28;20053;-69
2022/10/24 04:19:49;;;;;;;3.85;1.25;;;17.20;99.90;;;;;;5013545;28;20053;-69
2022/10/24 04:22:15;;;;;;;3.63;0.55;;;17.20;99.90;;;;;;5012656;28;20022;-69
2022/10/24 04:24:41;;;;;;;3.28;1.15;;;17.20;99.90;;;;;;5013219;28;20041;-70
2022/10/24 04:27:07;;;;;;;2.58;0.98;;;17.20;99.90;;;;;;5009825;28;20093;-70
2022/10/24 04:29:33;;;;;;;2.70;0.82;;;17.20;99.90;;;;;;5013487;28;20034;-70
2022/10/24 04:31:59;;;;;;;8.30;1.45;;;17.10;99.90;;;;;;5011658;28;20125;-69
2022/10/24 04:34:25;;;;;;;6.53;1.35;;;17.10;99.90;;;;;;5012567;28;20033;-70
2022/10/24 04:36:51;;;;;;;8.02;2.00;;;17.20;99.90;;;;;;5012566;28;20060;-69
2022/10/24 04:39:18;;;;;;;1.20;0.93;;;17.20;99.90;;;;;;5011814;28;20398;-69
2022/10/24 04:41:44;;;;;;;4.80;0.90;;;17.20;99.90;;;;;;5013382;28;20030;-70
2022/10/24 04:44:10;;;;;;;4.32;1.50;;;17.10;99.90;;;;;;5012406;28;20029;-70
2022/10/24 04:46:36;;;;;;;1.90;0.75;;;17.10;99.90;;;;;;5012242;28;20389;-71
2022/10/24 04:49:02;;;;;;;5.07;1.42;;;17.10;99.90;;;;;;5011699;28;20113;-70
2022/10/24 04:51:28;;;;;;;4.88;1.45;;;17.00;99.90;;;;;;5012938;28;20030;-67
2022/10/24 04:53:54;;;;;;;2.42;0.77;;;17.00;99.90;;;;;;5012162;28;20029;-71
2022/10/24 04:56:20;;;;;;;1.90;1.27;;;17.00;99.90;;;;;;5012798;28;20026;-69
2022/10/24 04:58:46;;;;;;;3.95;0.93;;;16.90;99.90;;;;;;5011631;28;20032;-70
2022/10/24 05:01:11;;;;;;;5.38;0.98;;;16.90;99.90;;;;;;5028239;28;20041;-69
2022/10/24 05:03:37;;;;;;;3.75;1.33;;;16.80;99.90;;;;;;5012440;28;20030;-70
2022/10/24 05:06:03;;;;;;;4.55;1.60;;;16.70;99.90;;;;;;5012603;28;20057;-70
2022/10/24 05:08:29;;;;;;;2.75;1.25;;;16.60;99.90;;;;;;5028072;28;20109;-70
2022/10/24 05:10:55;;;;;;;2.08;0.95;;;16.60;99.90;;;;;;5027793;28;20113;-70
2022/10/24 05:13:20;;;;;;;12.55;1.00;;;16.50;99.90;;;;;;5012161;28;20030;-70
2022/10/24 05:15:46;;;;;;;8.10;1.88;;;16.50;99.90;;;;;;5027761;28;20030;-70
2022/10/24 05:18:12;;;;;;;6.47;1.75;;;16.60;99.90;;;;;;5012556;28;20030;-71
2022/10/24 05:20:37;;;;;;;5.20;1.38;;;16.70;99.90;;;;;;5012589;28;20483;-69
2022/10/24 05:23:03;;;;;;;2.47;1.48;;;16.70;99.90;;;;;;5011836;28;20040;-70
2022/10/24 05:25:29;;;;;;;11.95;1.10;;;16.70;99.90;;;;;;4995471;28;20057;-70
2022/10/24 05:27:55;;;;;;;4.90;1.13;;;16.70;99.90;;;;;;5011103;28;20535;-69
2022/10/24 05:30:21;;;;;;;4.55;1.48;;;16.70;99.90;;;;;;5011289;28;20045;-69
2022/10/24 05:32:47;;;;;;;6.00;1.88;;;16.70;99.90;;;;;;5026709;28;20030;-69
2022/10/24 05:35:12;;;;;;;3.83;0.85;;;16.70;99.90;;;;;;5027510;28;20478;-74
2022/10/24 05:37:38;;;;;;;8.23;1.73;;;16.60;99.90;;;;;;5027057;28;20105;-69
2022/10/24 05:40:10;;;;;;;6.82;1.48;;;16.60;99.90;;;;;;5025945;28;20041;-68
2022/10/24 05:42:37;;;;;;;4.60;1.35;;;16.50;99.90;;;;;;5009788;28;20053;-69
2022/10/24 05:45:08;;;;;;;5.10;1.10;;;16.50;99.90;;;;;;5025323;28;20026;-70
2022/10/24 05:47:34;;;;;;;5.57;1.35;;;16.50;99.90;;;;;;5010606;28;20076;-69
2022/10/24 05:50:00;;;;;;;4.78;1.45;;;16.60;99.90;;;;;;5008880;28;20121;-69
2022/10/24 05:52:26;;;;;;;1.70;0.60;;;16.60;99.90;;;;;;5008973;28;20034;-69
2022/10/24 05:54:52;;;;;;;7.10;1.30;;;16.80;99.90;;;;;;5009108;28;20041;-70
2022/10/24 05:57:18;;;;;;;16.00;1.38;;;16.80;99.90;;;;;;4994523;28;20040;-70
2022/10/24 05:59:43;;;;;;;2.45;0.85;;;16.80;99.90;;;;;;5007271;28;20038;-70
2022/10/24 06:02:18;;;;;;;2.42;1.20;;;16.80;99.90;;;;;;5001497;28;20474;-70
2022/10/24 06:04:44;;;;;;;10.82;2.05;;;16.90;99.90;;;;;;5027038;28;20061;-69
2022/10/24 06:07:10;;;;;;;6.85;1.58;;;17.00;99.90;;;;;;5026863;28;20063;-67
2022/10/24 06:09:38;;;;;;;4.25;1.23;;;17.00;99.90;;;;;;5027025;28;20068;-70
2022/10/24 06:12:06;;;;;;;14.70;2.08;;;17.10;99.90;;;;;;5026283;28;20021;-69
2022/10/24 06:14:32;;;;;;;7.80;1.80;;;17.20;99.90;;;;;;5010953;28;20071;-70
2022/10/24 06:16:58;;;;;;;5.45;2.13;;;17.20;99.90;;;;;;5011821;28;20058;-70
2022/10/24 06:19:23;;;;;;;3.42;1.48;;;17.40;99.90;;;;;;5011838;28;20034;-70
2022/10/24 06:21:49;;;;;;;7.60;1.52;;;17.50;99.90;;;;;;5011738;28;20145;-70
2022/10/24 06:24:15;;;;;;;27.23;3.50;;;17.40;99.90;;;;;;5011097;28;20088;-70
2022/10/24 06:26:40;;;;;;;6.05;2.28;;;17.50;99.90;;;;;;5011462;28;20029;-70
2022/10/24 06:29:06;;;;;;;6.80;1.90;;;17.50;99.90;;;;;;5011380;28;20394;-70
2022/10/24 06:31:34;;;;;;;10.10;2.03;;;17.50;99.90;;;;;;5011684;28;20492;-69
2022/10/24 06:34:00;;;;;;;9.63;1.38;;;17.50;99.90;;;;;;5010802;28;20022;-69
2022/10/24 06:36:26;;;;;;;6.65;1.88;;;17.50;99.90;;;;;;5026648;28;20022;-70
2022/10/24 06:38:54;;;;;;;11.80;2.25;;;17.50;99.90;;;;;;5009702;28;20533;-69
2022/10/24 06:41:19;;;;;;;3.58;1.20;;;17.50;99.90;;;;;;5011586;28;20466;-70
2022/10/24 06:43:45;;;;;;;6.78;1.77;;;17.30;99.90;;;;;;5010437;28;20045;-69
2022/10/24 06:46:15;;;;;;;8.32;1.75;;;17.30;99.90;;;;;;5026539;28;20034;-69
2022/10/24 06:48:41;;;;;;;10.65;1.88;;;17.30;99.90;;;;;;5011062;28;20112;-69
2022/10/24 06:51:07;;;;;;;10.57;2.13;;;17.30;99.90;;;;;;5026654;28;20549;-69
2022/10/24 06:53:33;;;;;;;5.53;2.10;;;17.30;99.90;;;;;;5025059;28;20053;-69
2022/10/24 06:56:01;;;;;;;3.33;1.48;;;17.20;99.90;;;;;;5010011;28;20482;-70
2022/10/24 06:58:36;;;;;;;3.88;1.77;;;17.10;99.90;;;;;;4999259;28;20042;-70
2022/10/24 07:01:16;;;;;;;6.07;1.63;;;17.00;99.90;;;;;;4991452;28;20030;-70
2022/10/24 07:03:42;;;;;;;5.63;1.58;;;17.00;99.90;;;;;;5005785;28;20106;-70
2022/10/24 07:06:15;;;;;;;9.23;1.65;;;17.00;99.90;;;;;;4991580;28;20491;-70
2022/10/24 07:08:41;;;;;;;4.72;1.33;;;17.00;99.90;;;;;;5006359;28;20041;-70
2022/10/24 07:11:07;;;;;;;11.35;1.83;;;17.00;99.90;;;;;;5006570;28;20129;-69
2022/10/24 07:13:33;;;;;;;6.78;1.85;;;17.10;99.90;;;;;;4989492;28;20110;-70
2022/10/24 07:15:59;;;;;;;7.20;2.10;;;17.10;99.90;;;;;;4994167;28;20026;-70
2022/10/24 07:18:24;;;;;;;5.50;1.40;;;17.10;99.90;;;;;;4997906;28;20415;-70
2022/10/24 07:20:50;;;;;;;10.35;1.10;;;17.20;99.90;;;;;;4998053;28;20196;-70
2022/10/24 07:23:17;;;;;;;2.88;1.20;;;17.20;99.90;;;;;;4995977;28;20128;-69
2022/10/24 07:25:44;;;;;;;9.48;1.55;;;17.30;99.90;;;;;;4998172;28;20399;-69
2022/10/24 07:28:10;;;;;;;10.13;1.63;;;17.40;99.90;;;;;;5005941;28;20026;-69
2022/10/24 07:30:38;;;;;;;6.65;0.95;;;17.40;99.90;;;;;;5017294;28;20038;-69
2022/10/24 07:33:05;;;;;;;8.73;1.60;;;17.40;99.90;;;;;;5016905;28;20024;-70
2022/10/24 07:35:31;;;;;;;5.30;0.98;;;17.40;99.90;;;;;;5017429;28;20022;-69
2022/10/24 07:37:57;;;;;;;10.00;1.45;;;17.40;99.90;;;;;;5032212;28;20799;-70
2022/10/24 07:40:23;;;;;;;2.72;1.00;;;17.30;99.90;;;;;;5032630;28;20044;-69
2022/10/24 07:42:48;;;;;;;4.55;1.15;;;17.30;99.90;;;;;;5022638;28;20470;-69
2022/10/24 07:45:14;;;;;;;13.65;2.50;;;17.30;99.90;;;;;;4997919;28;20034;-69
2022/10/24 07:47:40;;;;;;;8.38;1.77;;;17.30;99.90;;;;;;5000020;28;20474;-69
2022/10/24 07:50:06;;;;;;;5.72;2.15;;;17.20;99.90;;;;;;4997467;28;20038;-69
2022/10/24 07:52:32;;;;;;;4.20;1.27;;;17.20;99.90;;;;;;4997023;28;20034;-69
2022/10/24 07:54:58;;;;;;;2.45;1.25;;;17.10;99.90;;;;;;4997511;28;20509;-70
2022/10/24 07:57:24;;;;;;;6.35;1.45;;;17.20;99.90;;;;;;4997746;28;20026;-69
2022/10/24 07:59:50;;;;;;;9.88;2.25;;;17.10;99.90;;;;;;5012358;28;20038;-69
2022/10/24 08:02:17;;;;;;;3.80;1.77;;;17.20;99.90;;;;;;4995594;28;20483;-69
2022/10/24 08:04:43;;;;;;;3.03;2.10;;;17.20;99.90;;;;;;5012563;28;20118;-69
2022/10/24 08:07:13;;;;;;;4.38;1.45;;;17.10;99.90;;;;;;5012792;28;20039;-69
2022/10/24 08:09:42;;;;;;;9.77;1.38;;;17.00;99.90;;;;;;5011714;28;20034;-69
2022/10/24 08:12:08;;;;;;;4.60;1.55;;;17.10;99.90;;;;;;4997414;28;20574;-69
2022/10/24 08:14:36;;;;;;;12.40;1.42;;;17.10;99.90;;;;;;4996904;28;20109;-70
2022/10/24 08:17:01;;;;;;;19.40;2.53;;;17.00;99.90;;;;;;5012652;28;20030;-70
2022/10/24 08:19:27;;;;;;;8.32;1.48;;;17.00;99.90;;;;;;4997424;28;20057;-69
2022/10/24 08:21:53;;;;;;;3.13;1.58;;;17.10;99.90;;;;;;5012003;28;20041;-69
2022/10/24 08:24:18;;;;;;;1.98;1.10;;;17.20;99.90;;;;;;4996744;28;20037;-69
2022/10/24 08:26:44;;;;;;;7.90;2.17;;;17.20;99.90;;;;;;4993854;28;20184;-69
2022/10/24 08:29:10;;;;;;;5.20;1.98;;;17.10;99.90;;;;;;5011529;28;20041;-69
2022/10/24 08:31:37;;;;;;;17.55;1.58;;;17.20;99.90;;;;;;5013766;28;20033;-69
2022/10/24 08:34:04;;;;;;;13.60;2.08;;;17.20;99.90;;;;;;5012984;28;20029;-69
2022/10/24 08:36:34;;;;;;;5.60;1.35;;;17.30;99.90;;;;;;5028645;28;20032;-69
2022/10/24 08:39:01;;;;;;;3.22;1.30;;;17.30;99.90;;;;;;5013517;28;20029;-69
2022/10/24 08:41:39;;;;;;;7.53;2.35;;;17.20;99.90;;;;;;5012365;28;20040;-69
2022/10/24 08:44:32;;;;;;;5.00;1.80;;;17.20;99.90;;;;;;5027432;28;20058;-69
2022/10/24 08:47:24;;;;;;;6.18;1.75;;;17.30;99.90;;;;;;5013415;28;20438;-70
2022/10/24 08:50:20;;;;;;;7.50;1.55;;;17.30;99.90;;;;;;5013615;28;20397;-70
2022/10/24 08:52:58;;;;;;;2.85;1.05;;;17.20;99.90;;;;;;5025915;28;20033;-69
2022/10/24 08:55:43;;;;;;;12.98;1.85;;;17.20;99.90;;;;;;5013427;28;20033;-70
2022/10/24 08:58:40;;;;;;;7.57;1.73;;;17.30;99.90;;;;;;5027748;28;20513;-69
2022/10/24 09:01:47;;;;;;;8.57;1.95;;;17.30;99.90;;;;;;5028052;28;20029;-70
2022/10/24 09:04:18;;;;;;;8.88;1.45;;;17.30;99.90;;;;;;4996956;28;20042;-69
2022/10/24 09:06:44;;;;;;;;;;;17.30;99.90;;;;;;5028657;28;20443;-69
2022/10/24 09:09:30;;;;;;;16.73;1.60;;;17.30;99.90;;;;;;5027319;28;19953;-70
2022/10/24 09:12:13;;;;;;;6.80;1.98;;;17.40;99.90;;;;;;5011879;28;20561;-70
2022/10/24 09:14:42;;;;;;;9.02;2.10;;;17.30;99.90;;;;;;5012544;28;20390;-70
2022/10/24 09:17:28;;;;;;;7.38;3.28;;;17.40;99.90;;;;;;5011507;28;20052;-69
2022/10/24 09:20:14;;;;;;;4.75;1.33;;;17.40;99.90;;;;;;4996381;28;20034;-69
2022/10/24 09:22:41;;;;;;;6.05;1.58;;;17.40;99.90;;;;;;5012440;28;20022;-69
2022/10/24 09:25:13;;;;;;;8.70;1.48;;;17.60;99.90;;;;;;5011604;28;20030;-68
2022/10/24 09:27:40;;;;;;;7.38;1.08;;;17.60;99.90;;;;;;5011306;28;20030;-69
2022/10/24 09:30:15;;;;;;;5.55;1.95;;;17.50;99.90;;;;;;5027783;28;20116;-70
2022/10/24 09:32:42;;;;;;;4.25;1.77;;;17.60;99.90;;;;;;5026697;28;20160;-70
2022/10/24 09:35:18;;;;;;;3.22;1.27;;;17.60;99.90;;;;;;5011399;28;20029;-69
2022/10/24 09:37:55;;;;;;;8.32;1.40;;;17.80;99.90;;;;;;5010837;28;20026;-70
2022/10/24 09:40:31;;;;;;;8.50;2.38;;;17.90;99.90;;;;;;4995055;28;20386;-70
2022/10/24 09:43:24;;;;;;;3.78;1.48;;;17.90;99.90;;;;;;5010359;28;20029;-70
2022/10/24 09:46:01;;;;;;;10.57;2.50;;;18.00;99.90;;;;;;5011648;28;20026;-70
2022/10/24 09:48:35;;;;;;;5.05;1.65;;;17.90;99.90;;;;;;5007935;28;21017;-70
2022/10/24 09:51:02;;;;;;;2.20;0.77;;;18.10;99.90;;;;;;5009465;28;20030;-70
2022/10/24 09:53:55;;;;;;;4.53;1.88;;;18.00;99.90;;;;;;5026055;28;20481;-70
2022/10/24 09:56:21;;;;;;;3.95;1.95;;;18.10;99.90;;;;;;5025024;28;20037;-70
2022/10/24 09:58:47;;;;;;;4.18;0.90;;;18.10;99.90;;;;;;5007291;28;20034;-71
2022/10/24 10:01:15;;;;;;;3.00;1.27;;;18.10;99.90;;;;;;5002450;28;20030;-70
2022/10/24 10:03:42;;;;;;;5.85;1.63;;;18.20;99.90;;;;;;5010026;28;20057;-69
2022/10/24 10:06:19;;;;;;;6.57;1.42;;;18.00;99.90;;;;;;5010749;28;20038;-69
2022/10/24 10:08:54;;;;;;;2.45;0.95;;;18.30;99.90;;;;;;5002779;28;20034;-69
2022/10/24 10:11:33;;;;;;;9.13;1.65;;;18.40;99.90;;;;;;5018126;28;20405;-69
2022/10/24 10:14:01;;;;;;;4.80;1.00;;;18.70;99.90;;;;;;5023674;28;20471;-68
2022/10/24 10:16:30;;;;;;;5.05;1.10;;;18.80;99.90;;;;;;5011435;28;20096;-68
2022/10/24 10:19:17;;;;;;;4.13;1.02;;;18.90;99.90;;;;;;5009996;28;20038;-69
2022/10/24 10:22:03;;;;;;;5.85;0.88;;;19.00;99.90;;;;;;5026015;28;20028;-69
2022/10/24 10:24:34;;;;;;;1.65;1.00;;;18.80;99.90;;;;;;5010868;28;20037;-69
2022/10/24 10:27:01;;;;;;;2.88;1.27;;;18.60;99.90;;;;;;5011175;28;20030;-69
2022/10/24 10:29:27;;;;;;;7.80;1.60;;;18.70;99.90;;;;;;5011192;28;20057;-68
2022/10/24 10:32:25;;;;;;;1.42;0.88;;;18.50;99.90;;;;;;5010307;28;20486;-68
2022/10/24 10:35:21;;;;;;;10.52;1.40;;;18.70;99.90;;;;;;5001486;28;20045;-69
2022/10/24 10:38:15;;;;;;;2.28;0.60;;;18.90;99.90;;;;;;5005616;28;20029;-69
2022/10/24 10:40:52;;;;;;;4.38;1.08;;;19.10;99.90;;;;;;5001750;28;20569;-70
2022/10/24 10:43:50;;;;;;;10.50;1.85;;;19.10;99.90;;;;;;5024680;28;20069;-67
2022/10/24 10:46:52;;;;;;;5.57;1.85;;;19.70;99.90;;;;;;5011152;28;20026;-68
2022/10/24 10:49:32;;;;;;;2.15;0.80;;;19.80;99.90;;;;;;5009336;28;20157;-68
2022/10/24 10:52:31;;;;;;;3.22;1.40;;;20.00;99.90;;;;;;5009654;28;20034;-69
2022/10/24 10:55:39;;;;;;;8.52;1.83;;;19.90;99.90;;;;;;5025519;28;20029;-68
2022/10/24 10:58:32;;;;;;;2.72;1.10;;;20.20;99.90;;;;;;5010181;28;20103;-70
2022/10/24 11:01:38;;;;;;;1.42;0.75;;;20.50;99.90;;;;;;5024676;28;20414;-69
2022/10/24 11:04:21;;;;;;;7.95;1.30;;;20.80;99.90;;;;;;5008798;28;20046;-68
2022/10/24 11:07:05;;;;;;;9.55;1.23;;;20.20;99.90;;;;;;5011086;28;20033;-69
2022/10/24 11:09:48;;;;;;;6.72;1.52;;;19.70;99.90;;;;;;5010873;28;20405;-68
2022/10/24 11:12:37;;;;;;;1.77;1.05;;;20.00;99.90;;;;;;5009242;28;20026;-68
2022/10/24 11:15:26;;;;;;;6.25;1.63;;;19.60;99.90;;;;;;5009564;28;20034;-68
2022/10/24 11:18:21;;;;;;;10.60;1.70;;;19.50;99.90;;;;;;5009617;28;20731;-69
2022/10/24 11:20:52;;;;;;;2.08;0.90;;;19.70;99.90;;;;;;5009820;28;20030;-68
2022/10/24 11:23:29;;;;;;;3.50;1.40;;;20.40;99.90;;;;;;5008986;28;20029;-68
2022/10/24 11:26:17;;;;;;;5.47;0.95;;;21.30;99.90;;;;;;5011218;28;20032;-67
2022/10/24 11:29:08;;;;;;;3.83;0.82;;;22.10;99.90;;;;;;5010494;28;20022;-68
2022/10/24 11:31:44;;;;;;;2.88;0.73;;;22.60;99.90;;;;;;5024278;28;20091;-67
2022/10/24 11:34:34;;;;;;;1.95;0.82;;;22.70;99.90;;;;;;5024934;28;20037;-69
2022/10/24 11:37:30;;;;;;;5.72;1.25;;;22.90;99.90;;;;;;5024492;28;20104;-69
2022/10/24 11:40:18;;;;;;;3.03;1.55;;;23.50;99.90;;;;;;5009016;28;20098;-68
2022/10/24 11:43:26;;;;;;;2.80;1.05;;;23.10;99.90;;;;;;5010201;28;20368;-69
2022/10/24 11:46:19;;;;;;;4.68;1.08;;;23.50;99.90;;;;;;5024668;28;20515;-70
2022/10/24 11:49:11;;;;;;;7.10;1.00;;;22.70;99.90;;;;;;5025124;28;20136;-69
2022/10/24 11:51:44;;;;;;;3.55;1.25;;;23.40;99.90;;;;;;5024482;28;20234;-70
2022/10/24 11:54:29;;;;;;;2.70;1.15;;;23.20;99.90;;;;;;5008816;28;20108;-70
2022/10/24 11:57:17;;;;;;;7.95;1.40;;;24.30;99.90;;;;;;5009554;28;20028;-70
2022/10/24 11:59:43;;;;;;;4.57;1.58;;;23.70;99.90;;;;;;5002278;28;20034;-71
2022/10/24 12:03:07;;;;;;;3.80;1.00;;;23.60;99.90;;;;;;5011264;28;20381;-71
2022/10/24 12:06:12;;;;;;;2.85;0.80;;;24.60;99.90;;;;;;5013390;28;20065;-71
2022/10/24 12:09:12;;;;;;;1.52;0.80;;;25.10;99.90;;;;;;5012904;28;20034;-71
2022/10/24 12:12:34;;;;;;;8.32;2.35;;;24.90;99.90;;;;;;5006636;28;20045;-71
2022/10/24 12:15:09;;;;;;;3.47;1.10;;;24.30;99.90;;;;;;4992879;28;20049;-69
2022/10/24 12:18:10;;;;;;;4.35;0.82;;;25.20;99.90;;;;;;4992648;28;20029;-70
2022/10/24 12:20:38;;;;;;;5.57;0.77;;;24.70;99.90;;;;;;4993363;28;20060;-72
2022/10/24 12:23:05;;;;;;;6.80;2.03;;;25.10;99.90;;;;;;4992232;28;20039;-72
2022/10/24 12:25:36;;;;;;;3.38;1.48;;;24.80;99.90;;;;;;4993974;28;20029;-70
2022/10/24 12:28:26;;;;;;;7.75;0.80;;;24.20;99.90;;;;;;4992672;28;20026;-70
2022/10/24 12:31:12;;;;;;;3.50;1.08;;;24.10;99.90;;;;;;4993767;28;20057;-69
2022/10/24 12:33:38;;;;;;;7.80;1.38;;;23.90;99.90;;;;;;5007664;28;20042;-70
2022/10/24 12:36:04;;;;;;;4.57;0.85;;;23.50;99.90;;;;;;4992535;28;20041;-70
2022/10/24 12:38:30;;;;;;;4.63;1.20;;;23.10;99.90;;;;;;5005891;28;20390;-69
2022/10/24 12:41:08;;;;;;;0.90;0.60;;;23.40;99.90;;;;;;5013369;28;20030;-70
2022/10/24 12:43:43;;;;;;;7.65;1.00;;;23.10;99.90;;;;;;5012245;28;20028;-71
2022/10/24 12:46:14;;;;;;;4.53;1.48;;;22.90;99.90;;;;;;5012065;28;20022;-70
2022/10/24 12:48:44;;;;;;;4.22;1.65;;;22.30;99.90;;;;;;5011850;28;20120;-70
2022/10/24 12:51:40;;;;;;;5.25;1.27;;;21.70;99.90;;;;;;5013087;28;20057;-70
2022/10/24 12:54:12;;;;;;;2.08;1.02;;;21.70;99.90;;;;;;5011847;28;20029;-71
2022/10/24 12:56:50;;;;;;;2.80;0.95;;;21.80;99.90;;;;;;5012703;28;20088;-70
2022/10/24 12:59:32;;;;;;;4.13;1.60;;;21.60;99.90;;;;;;5012158;28;20115;-70
2022/10/24 13:02:09;;;;;;;10.00;1.65;;;21.70;99.90;;;;;;4994960;28;20049;-71
2022/10/24 13:05:21;;;;;;;9.00;2.35;;;22.20;99.90;;;;;;5011731;28;20096;-70
2022/10/24 13:08:19;;;;;;;7.35;1.40;;;22.90;99.90;;;;;;5011451;28;20042;-70
2022/10/24 13:11:05;;;;;;;5.68;1.42;;;23.30;99.90;;;;;;5012567;28;20034;-71
2022/10/24 13:13:50;;;;;;;4.90;1.27;;;23.10;99.90;;;;;;5011110;28;20033;-70
2022/10/24 13:16:32;;;;;;;8.02;1.77;;;23.00;99.90;;;;;;5012403;28;20038;-70
2022/10/24 13:19:20;;;;;;;3.92;1.17;;;23.00;99.90;;;;;;5012418;28;20060;-70